createdAt,value
2022-12-03T00:00:12.116Z,10.40
2022-12-03T00:02:41.823Z,11.87
2022-12-03T00:05:10.368Z,11.47
2022-12-03T00:07:38.156Z,11.60
2022-12-03T00:10:06.740Z,11.90
2022-12-03T00:12:34.386Z,11.10
2022-12-03T00:15:02.043Z,12.23
2022-12-03T00:17:29.638Z,11.67
2022-12-03T00:19:57.225Z,12.57
2022-12-03T00:22:24.806Z,11.63
2022-12-03T00:24:52.628Z,12.20
2022-12-03T00:27:20.520Z,12.43
2022-12-03T00:29:48.194Z,13.30
2022-12-03T00:32:15.795Z,12.37
2022-12-03T00:34:43.419Z,12.10
2022-12-03T00:37:10.989Z,11.73
2022-12-03T00:39:38.657Z,11.60
2022-12-03T00:42:06.206Z,12.63
2022-12-03T00:44:33.789Z,11.80
2022-12-03T00:47:01.476Z,12.40
2022-12-03T00:49:29.131Z,13.20
2022-12-03T00:51:56.793Z,12.30
2022-12-03T00:54:30.195Z,13.40
2022-12-03T00:56:59.629Z,13.67
2022-12-03T00:59:27.570Z,13.40
2022-12-03T01:01:55.198Z,13.53
2022-12-03T01:04:23.233Z,13.70
2022-12-03T01:06:50.898Z,12.83
2022-12-03T01:09:18.519Z,13.00
2022-12-03T01:11:46.154Z,14.33
2022-12-03T01:14:17.002Z,13.13
2022-12-03T01:16:45.937Z,13.30
2022-12-03T01:19:16.037Z,14.23
2022-12-03T01:21:45.722Z,13.70
2022-12-03T01:24:14.136Z,14.60
2022-12-03T01:26:41.979Z,13.97
2022-12-03T01:29:09.654Z,14.73
2022-12-03T01:31:55.814Z,14.20
2022-12-03T01:34:23.457Z,13.93
2022-12-03T01:36:52.567Z,13.53
2022-12-03T01:39:20.451Z,13.13
2022-12-03T01:41:50.205Z,14.17
2022-12-03T01:44:24.924Z,13.77
2022-12-03T01:46:54.977Z,14.47
2022-12-03T01:49:27.352Z,15.20
2022-12-03T01:51:56.049Z,15.43
2022-12-03T01:54:38.162Z,14.27
2022-12-03T01:57:12.792Z,14.87
2022-12-03T01:59:40.406Z,16.47
2022-12-03T02:02:27.711Z,16.17
2022-12-03T02:04:56.720Z,16.00
2022-12-03T02:07:28.957Z,15.80
2022-12-03T02:09:58.904Z,15.43
2022-12-03T02:12:37.595Z,15.00
2022-12-03T02:15:08.930Z,15.87
2022-12-03T02:17:37.248Z,16.47
2022-12-03T02:20:07.669Z,16.00
2022-12-03T02:23:07.444Z,15.57
2022-12-03T02:25:36.792Z,16.63
2022-12-03T02:28:05.922Z,15.87
2022-12-03T02:30:35.391Z,16.33
2022-12-03T02:33:03.835Z,15.87
2022-12-03T02:35:34.344Z,15.07
2022-12-03T02:38:18.605Z,16.33
2022-12-03T02:40:48.889Z,16.70
2022-12-03T02:43:18.663Z,15.60
2022-12-03T02:45:57.674Z,17.30
2022-12-03T02:48:51.732Z,16.37
2022-12-03T02:51:19.366Z,16.37
2022-12-03T02:53:50.151Z,17.47
2022-12-03T02:56:23.268Z,17.27
2022-12-03T02:58:54.610Z,16.53
2022-12-03T03:01:22.353Z,17.47
2022-12-03T03:03:51.419Z,17.43
2022-12-03T03:06:20.202Z,16.47
2022-12-03T03:08:48.893Z,16.77
2022-12-03T03:11:16.546Z,16.50
2022-12-03T03:13:44.314Z,16.13
2022-12-03T03:16:12.017Z,15.73
2022-12-03T03:18:40.095Z,16.83
2022-12-03T03:21:08.325Z,17.50
2022-12-03T03:23:36.086Z,16.17
2022-12-03T03:26:08.893Z,17.90
2022-12-03T03:28:40.238Z,18.53
2022-12-03T03:31:10.632Z,16.00
2022-12-03T03:33:41.366Z,16.30
2022-12-03T03:36:09.400Z,18.27
2022-12-03T03:38:37.862Z,17.83
2022-12-03T03:41:07.523Z,17.03
2022-12-03T03:43:38.252Z,16.27
2022-12-03T03:46:07.442Z,18.20
2022-12-03T03:48:35.787Z,17.53
2022-12-03T03:51:08.900Z,18.00
2022-12-03T03:53:44.087Z,17.87
2022-12-03T03:56:13.086Z,17.37
2022-12-03T03:58:40.907Z,17.07
2022-12-03T04:01:11.093Z,17.23
2022-12-03T04:03:39.178Z,17.33
2022-12-03T04:06:07.591Z,16.53
2022-12-03T04:08:35.297Z,16.90
2022-12-03T04:11:22.015Z,16.73
2022-12-03T04:13:49.688Z,16.83
2022-12-03T04:16:17.322Z,17.10
2022-12-03T04:18:45.049Z,16.20
2022-12-03T04:21:31.474Z,16.73
2022-12-03T04:23:59.726Z,17.30
2022-12-03T04:26:46.359Z,18.27
2022-12-03T04:29:14.290Z,18.50
2022-12-03T04:32:01.474Z,16.70
2022-12-03T04:34:47.778Z,16.60
2022-12-03T04:37:15.408Z,15.93
2022-12-03T04:39:43.002Z,15.97
2022-12-03T04:42:10.642Z,17.37
2022-12-03T04:44:38.333Z,16.33
2022-12-03T04:47:14.379Z,16.67
2022-12-03T04:49:44.071Z,16.03
2022-12-03T04:52:13.493Z,16.80
2022-12-03T04:54:43.151Z,17.10
2022-12-03T04:57:11.971Z,16.97
2022-12-03T04:59:39.879Z,16.47
2022-12-03T05:02:08.165Z,16.40
2022-12-03T05:04:36.177Z,15.17
2022-12-03T05:07:04.211Z,15.73
2022-12-03T05:09:31.881Z,16.00
2022-12-03T05:11:59.474Z,15.07
2022-12-03T05:14:27.156Z,14.97
2022-12-03T05:16:54.949Z,14.90
2022-12-03T05:19:42.599Z,15.33
2022-12-03T05:22:10.149Z,15.53
2022-12-03T05:24:38.059Z,16.07
2022-12-03T05:27:05.626Z,22.30
2022-12-03T05:29:33.321Z,15.53
2022-12-03T05:32:02.574Z,14.53
2022-12-03T05:34:30.150Z,14.70
2022-12-03T05:36:57.901Z,15.40
2022-12-03T05:39:25.543Z,15.70
2022-12-03T05:42:12.133Z,14.27
2022-12-03T05:44:39.759Z,15.97
2022-12-03T05:47:07.380Z,16.07
2022-12-03T05:49:34.942Z,16.00
2022-12-03T05:52:02.530Z,16.50
2022-12-03T05:54:30.141Z,16.53
2022-12-03T05:56:58.041Z,15.93
2022-12-03T05:59:25.671Z,15.57
2022-12-03T06:01:53.306Z,16.43
2022-12-03T06:04:21.057Z,15.00
2022-12-03T06:06:51.975Z,15.37
2022-12-03T06:09:19.532Z,15.63
2022-12-03T06:11:47.261Z,15.30
2022-12-03T06:14:14.840Z,15.23
2022-12-03T06:16:42.546Z,14.87
2022-12-03T06:19:10.254Z,14.80
2022-12-03T06:21:37.821Z,15.80
2022-12-03T06:24:05.807Z,15.40
2022-12-03T06:26:36.061Z,15.87
2022-12-03T06:29:03.697Z,15.60
2022-12-03T06:31:31.326Z,15.70
2022-12-03T06:33:58.944Z,15.03
2022-12-03T06:36:27.686Z,14.97
2022-12-03T06:38:55.359Z,14.60
2022-12-03T06:41:22.920Z,15.27
2022-12-03T06:43:50.453Z,15.10
2022-12-03T06:46:18.072Z,14.77
2022-12-03T06:48:45.751Z,15.07
2022-12-03T06:51:13.337Z,15.07
2022-12-03T06:53:41.036Z,15.20
2022-12-03T06:56:08.627Z,14.47
2022-12-03T06:58:36.227Z,14.17
2022-12-03T07:01:04.174Z,15.63
2022-12-03T07:03:31.757Z,13.50
2022-12-03T07:05:59.356Z,14.10
2022-12-03T07:08:27.928Z,14.47
2022-12-03T07:10:55.921Z,15.43
2022-12-03T07:13:23.653Z,14.60
2022-12-03T07:15:51.307Z,15.37
2022-12-03T07:18:18.904Z,14.60
2022-12-03T07:20:46.524Z,14.03
2022-12-03T07:23:14.090Z,15.77
2022-12-03T07:25:41.672Z,14.80
2022-12-03T07:28:09.627Z,15.87
2022-12-03T07:30:37.228Z,16.00
2022-12-03T07:33:04.946Z,16.63
2022-12-03T07:35:32.566Z,15.90
2022-12-03T07:38:00.195Z,16.13
2022-12-03T07:40:27.929Z,16.37
2022-12-03T07:42:55.567Z,15.63
2022-12-03T07:45:23.108Z,16.37
2022-12-03T07:47:51.602Z,15.83
2022-12-03T07:50:19.539Z,16.17
2022-12-03T07:55:47.766Z,16.97
2022-12-03T07:58:15.471Z,17.67
2022-12-03T08:00:43.089Z,16.87
2022-12-03T08:03:10.723Z,17.80
2022-12-03T08:05:38.295Z,16.83
2022-12-03T08:08:06.127Z,17.13
2022-12-03T08:10:33.839Z,17.17
2022-12-03T08:13:04.993Z,16.63
2022-12-03T08:15:39.104Z,17.20
2022-12-03T08:18:16.996Z,18.87
2022-12-03T08:20:46.145Z,18.00
2022-12-03T08:23:25.140Z,17.13
2022-12-03T08:25:53.262Z,18.10
2022-12-03T08:28:26.556Z,17.57
2022-12-03T08:31:32.319Z,18.80
2022-12-03T08:34:28.086Z,19.17
2022-12-03T08:37:05.748Z,17.30
2022-12-03T08:39:37.756Z,17.37
2022-12-03T08:42:32.078Z,17.10
2022-12-03T08:45:40.278Z,16.90
2022-12-03T08:48:21.163Z,18.13
2022-12-03T08:50:48.930Z,17.33
2022-12-03T08:53:41.750Z,17.97
2022-12-03T08:56:41.631Z,18.93
2022-12-03T08:59:21.160Z,18.00
2022-12-03T09:01:50.322Z,18.63
2022-12-03T09:04:21.019Z,18.60
2022-12-03T09:06:48.810Z,18.13
2022-12-03T09:09:16.494Z,17.20
2022-12-03T09:11:44.961Z,17.17
2022-12-03T09:14:18.321Z,17.93
2022-12-03T09:16:46.792Z,17.43
2022-12-03T09:19:14.648Z,16.90
2022-12-03T09:21:42.267Z,17.90
2022-12-03T09:24:09.892Z,18.17
2022-12-03T09:26:37.614Z,18.10
2022-12-03T09:29:10.429Z,18.60
2022-12-03T09:31:40.360Z,17.70
2022-12-03T09:34:08.676Z,16.90
2022-12-03T09:36:36.359Z,17.60
2022-12-03T09:39:04.445Z,17.97
2022-12-03T09:41:32.057Z,17.70
2022-12-03T09:44:04.422Z,18.60
2022-12-03T09:46:35.918Z,19.23
2022-12-03T09:49:06.633Z,20.43
2022-12-03T09:51:37.090Z,24.13
2022-12-03T09:54:07.057Z,20.07
2022-12-03T09:56:37.735Z,19.87
2022-12-03T09:59:15.269Z,19.80
2022-12-03T10:01:43.423Z,18.23
2022-12-03T10:04:11.651Z,20.10
2022-12-03T10:06:45.322Z,18.77
2022-12-03T10:09:17.746Z,19.77
2022-12-03T10:11:45.394Z,18.60
2022-12-03T10:14:14.925Z,19.43
2022-12-03T10:16:43.575Z,18.60
2022-12-03T10:19:21.050Z,18.07
2022-12-03T10:21:49.429Z,18.27
2022-12-03T10:24:17.005Z,20.17
2022-12-03T10:26:47.852Z,20.73
2022-12-03T10:29:23.861Z,20.63
2022-12-03T10:32:07.086Z,20.70
2022-12-03T10:34:37.556Z,19.17
2022-12-03T10:37:15.442Z,20.33
2022-12-03T10:39:58.631Z,20.40
2022-12-03T10:42:32.071Z,17.60
2022-12-03T10:45:14.687Z,17.53
2022-12-03T10:47:43.701Z,17.30
2022-12-03T10:50:18.330Z,17.93
2022-12-03T10:52:46.855Z,18.37
2022-12-03T10:55:15.840Z,18.00
2022-12-03T10:57:45.907Z,17.93
2022-12-03T11:00:21.233Z,18.40
2022-12-03T11:02:54.932Z,18.83
2022-12-03T11:05:27.448Z,18.03
2022-12-03T11:07:56.244Z,18.37
2022-12-03T11:10:24.452Z,18.60
2022-12-03T11:13:27.980Z,17.47
2022-12-03T11:15:56.250Z,18.57
2022-12-03T11:18:49.768Z,17.23
2022-12-03T11:21:17.465Z,19.20
2022-12-03T11:23:48.091Z,19.07
2022-12-03T11:26:35.590Z,18.60
2022-12-03T11:29:04.537Z,17.43
2022-12-03T11:31:37.806Z,19.27
2022-12-03T11:34:20.675Z,18.47
2022-12-03T11:37:10.262Z,19.67
2022-12-03T11:39:50.537Z,19.47
2022-12-03T11:42:27.093Z,18.33
2022-12-03T11:45:08.411Z,17.83
2022-12-03T11:47:43.169Z,18.30
2022-12-03T11:50:23.113Z,19.70
2022-12-03T11:53:01.378Z,18.50
2022-12-03T11:55:38.258Z,18.53
2022-12-03T11:58:17.122Z,19.97
2022-12-03T12:00:49.913Z,18.90
2022-12-03T12:03:29.538Z,20.00
2022-12-03T12:06:15.279Z,19.53
2022-12-03T12:09:04.276Z,18.77
2022-12-03T12:11:38.733Z,18.67
2022-12-03T12:14:09.687Z,18.97
2022-12-03T12:16:51.117Z,19.60
2022-12-03T12:19:39.935Z,19.00
2022-12-03T12:22:13.711Z,18.77
2022-12-03T12:24:43.363Z,18.80
2022-12-03T12:27:31.849Z,20.63
2022-12-03T12:30:14.426Z,19.87
2022-12-03T12:32:50.723Z,18.77
2022-12-03T12:35:22.834Z,20.00
2022-12-03T12:38:00.780Z,19.03
2022-12-03T12:40:31.934Z,19.33
2022-12-03T12:43:13.199Z,20.20
2022-12-03T12:45:43.801Z,20.50
2022-12-03T12:48:20.641Z,20.43
2022-12-03T12:51:12.771Z,20.37
2022-12-03T12:53:44.809Z,20.37
2022-12-03T12:56:26.246Z,20.40
2022-12-03T12:59:02.130Z,20.10
2022-12-03T13:01:31.741Z,21.67
2022-12-03T13:03:59.693Z,21.47
2022-12-03T13:06:29.984Z,21.60
2022-12-03T13:09:01.072Z,21.67
2022-12-03T13:11:42.310Z,22.03
2022-12-03T13:14:15.303Z,20.53
2022-12-03T13:16:43.299Z,21.43
2022-12-03T13:19:39.561Z,20.07
2022-12-03T13:22:27.487Z,21.10
2022-12-03T13:24:57.272Z,20.53
2022-12-03T13:27:32.697Z,21.97
2022-12-03T13:30:04.905Z,21.93
2022-12-03T13:32:36.786Z,21.87
2022-12-03T13:35:07.748Z,22.20
2022-12-03T13:37:36.766Z,22.13
2022-12-03T13:40:43.077Z,21.20
2022-12-03T13:43:18.620Z,22.27
2022-12-03T13:45:51.144Z,22.37
2022-12-03T13:48:47.240Z,22.70
2022-12-03T13:51:29.942Z,22.53
2022-12-03T13:54:00.007Z,23.93
2022-12-03T13:56:32.621Z,25.13
2022-12-03T13:59:01.119Z,22.57
2022-12-03T14:01:29.412Z,22.87
2022-12-03T14:03:57.198Z,23.07
2022-12-03T14:06:24.765Z,23.73
2022-12-03T14:08:52.594Z,22.33
2022-12-03T14:11:38.750Z,22.67
2022-12-03T14:14:06.304Z,23.13
2022-12-03T14:16:34.003Z,22.43
2022-12-03T14:19:01.712Z,22.80
2022-12-03T14:21:29.388Z,22.90
2022-12-03T14:23:57.035Z,22.47
2022-12-03T14:26:24.626Z,22.43
2022-12-03T14:28:52.153Z,23.27
2022-12-03T14:31:19.767Z,24.60
2022-12-03T14:33:47.397Z,23.50
2022-12-03T14:36:17.617Z,24.07
2022-12-03T14:38:45.174Z,23.73
2022-12-03T14:41:33.047Z,22.83
2022-12-03T14:44:00.607Z,23.13
2022-12-03T14:46:28.273Z,23.40
2022-12-03T14:48:55.860Z,23.37
2022-12-03T14:51:23.508Z,23.97
2022-12-03T14:53:51.090Z,23.37
2022-12-03T14:56:18.704Z,23.87
2022-12-03T14:58:46.315Z,23.00
2022-12-03T15:01:14.774Z,22.90
2022-12-03T15:03:42.398Z,22.77
2022-12-03T15:06:09.943Z,24.40
2022-12-03T15:08:37.517Z,22.73
2022-12-03T15:11:05.139Z,23.07
2022-12-03T15:13:32.819Z,22.97
2022-12-03T15:16:00.391Z,23.30
2022-12-03T15:18:28.116Z,24.20
2022-12-03T15:20:55.736Z,23.10
2022-12-03T15:23:23.365Z,23.57
2022-12-03T15:25:51.374Z,23.50
2022-12-03T15:28:19.082Z,23.20
2022-12-03T15:30:46.666Z,23.67
2022-12-03T15:33:14.295Z,24.90
2022-12-03T15:35:47.308Z,23.40
2022-12-03T15:38:15.475Z,22.90
2022-12-03T15:40:43.096Z,22.23
2022-12-03T15:43:11.182Z,24.43
2022-12-03T15:45:48.199Z,23.63
2022-12-03T15:48:18.677Z,23.70
2022-12-03T15:50:46.240Z,23.13
2022-12-03T15:53:13.793Z,24.03
2022-12-03T15:55:43.645Z,25.30
2022-12-03T15:58:11.251Z,25.63
2022-12-03T16:00:38.783Z,25.83
2022-12-03T16:03:06.398Z,24.57
2022-12-03T16:05:34.092Z,24.37
2022-12-03T16:08:01.727Z,24.83
2022-12-03T16:10:29.363Z,23.27
2022-12-03T16:12:57.417Z,24.33
2022-12-03T16:15:27.542Z,23.27
2022-12-03T16:18:01.490Z,23.97
2022-12-03T16:20:30.418Z,25.10
2022-12-03T16:22:58.079Z,23.37
2022-12-03T16:25:25.712Z,23.90
2022-12-03T16:27:53.290Z,23.60
2022-12-03T16:30:20.894Z,24.17
2022-12-03T16:32:48.689Z,24.17
2022-12-03T16:35:16.375Z,24.03
2022-12-03T16:37:43.942Z,23.33
2022-12-03T16:40:27.060Z,23.30
2022-12-03T16:42:54.624Z,22.30
2022-12-03T16:45:33.033Z,24.90
2022-12-03T16:48:19.097Z,24.23
2022-12-03T16:50:47.035Z,23.27
2022-12-03T16:53:21.741Z,23.73
2022-12-03T16:55:57.053Z,23.77
2022-12-03T16:58:27.966Z,25.17
2022-12-03T17:01:00.078Z,24.37
2022-12-03T17:03:34.082Z,24.07
2022-12-03T17:06:02.387Z,25.47
2022-12-03T17:08:30.318Z,25.40
2022-12-03T17:10:58.025Z,23.17
2022-12-03T17:13:25.732Z,24.97
2022-12-03T17:15:56.198Z,24.63
2022-12-03T17:18:29.261Z,25.13
2022-12-03T17:21:10.759Z,23.40
2022-12-03T17:23:49.154Z,24.50
2022-12-03T17:26:33.399Z,23.93
2022-12-03T17:29:15.475Z,23.97
2022-12-03T17:31:54.910Z,24.00
2022-12-03T17:34:29.207Z,25.30
2022-12-03T17:37:15.482Z,24.57
2022-12-03T17:39:48.134Z,23.40
2022-12-03T17:42:29.142Z,25.47
2022-12-03T17:45:10.044Z,23.33
2022-12-03T17:47:43.101Z,25.47
2022-12-03T17:50:11.028Z,23.90
2022-12-03T17:52:38.656Z,23.53
2022-12-03T17:55:12.832Z,24.10
2022-12-03T17:57:43.751Z,24.80
2022-12-03T18:00:12.049Z,25.70
2022-12-03T18:02:39.678Z,25.03
2022-12-03T18:05:07.643Z,26.03
2022-12-03T18:07:35.431Z,26.77
2022-12-03T18:10:03.217Z,25.40
2022-12-03T18:12:30.855Z,26.13
2022-12-03T18:14:58.404Z,25.70
2022-12-03T18:17:26.050Z,24.67
2022-12-03T18:19:54.019Z,24.27
2022-12-03T18:22:21.947Z,23.47
2022-12-03T18:24:52.044Z,23.63
2022-12-03T18:27:24.996Z,23.63
2022-12-03T18:29:54.668Z,23.90
2022-12-03T18:32:30.267Z,26.20
2022-12-03T18:34:58.226Z,24.67
2022-12-03T18:37:28.813Z,34.90
2022-12-03T18:39:58.134Z,24.70
2022-12-03T18:42:26.781Z,24.97
2022-12-03T18:44:55.943Z,25.23
2022-12-03T18:47:26.979Z,27.23
2022-12-03T18:49:55.476Z,26.27
2022-12-03T18:52:24.953Z,23.90
2022-12-03T18:54:53.079Z,25.23
2022-12-03T18:57:20.731Z,23.93
2022-12-03T18:59:48.361Z,23.93
2022-12-03T19:02:38.991Z,23.63
2022-12-03T19:05:06.354Z,24.43
2022-12-03T19:07:34.002Z,24.77
2022-12-03T19:10:01.666Z,23.93
2022-12-03T19:12:29.783Z,24.13
2022-12-03T19:14:57.333Z,24.47
2022-12-03T19:17:26.923Z,25.67
2022-12-03T19:19:55.124Z,23.80
2022-12-03T19:22:23.661Z,26.10
2022-12-03T19:24:51.255Z,23.40
2022-12-03T19:27:19.175Z,25.57
2022-12-03T19:29:49.765Z,25.07
2022-12-03T19:32:17.548Z,23.93
2022-12-03T19:34:45.239Z,26.23
2022-12-03T19:37:17.537Z,24.30
2022-12-03T19:39:49.320Z,23.13
2022-12-03T19:42:17.277Z,23.60
2022-12-03T19:44:44.865Z,23.73
2022-12-03T19:47:15.188Z,25.27
2022-12-03T19:49:42.797Z,25.73
2022-12-03T19:52:10.352Z,26.23
2022-12-03T19:54:37.897Z,25.60
2022-12-03T19:57:05.487Z,25.07
2022-12-03T19:59:33.045Z,25.17
2022-12-03T20:02:00.904Z,22.33
2022-12-03T20:04:28.603Z,23.37
2022-12-03T20:06:56.485Z,23.03
2022-12-03T20:09:24.125Z,24.73
2022-12-03T20:11:51.870Z,23.90
2022-12-03T20:14:22.557Z,24.73
2022-12-03T20:16:52.031Z,22.43
2022-12-03T20:19:25.225Z,23.67
2022-12-03T20:21:56.309Z,22.63
2022-12-03T20:24:26.827Z,22.10
2022-12-03T20:26:54.427Z,22.27
2022-12-03T20:29:22.108Z,23.30
2022-12-03T20:31:49.688Z,23.57
2022-12-03T20:34:17.439Z,23.10
2022-12-03T20:36:45.548Z,22.30
2022-12-03T20:39:13.578Z,22.90
2022-12-03T20:41:44.281Z,20.77
2022-12-03T20:44:27.689Z,21.00
2022-12-03T20:47:03.824Z,21.30
2022-12-03T20:49:39.191Z,22.30
2022-12-03T20:52:11.993Z,22.07
2022-12-03T20:57:36.338Z,22.70
2022-12-03T21:00:10.231Z,21.40
2022-12-03T21:02:38.471Z,20.97
2022-12-03T21:05:06.812Z,21.60
2022-12-03T21:07:35.414Z,20.53
2022-12-03T21:10:03.279Z,23.23
2022-12-03T21:12:30.973Z,21.40
2022-12-03T21:14:58.547Z,22.33
2022-12-03T21:17:26.244Z,20.83
2022-12-03T21:19:54.063Z,20.20
2022-12-03T21:22:21.888Z,20.50
2022-12-03T21:24:49.523Z,19.30
2022-12-03T21:27:21.658Z,19.67
2022-12-03T21:29:49.770Z,18.57
2022-12-03T21:32:17.418Z,18.13
2022-12-03T21:34:44.957Z,19.90
2022-12-03T21:37:12.575Z,18.70
2022-12-03T21:39:40.238Z,18.43
2022-12-03T21:42:33.993Z,18.67
2022-12-03T21:44:55.453Z,16.80
2022-12-03T21:47:23.194Z,18.27
2022-12-03T21:49:50.874Z,18.93
2022-12-03T21:52:18.511Z,18.47
2022-12-03T21:54:46.262Z,17.70
2022-12-03T21:57:13.931Z,17.63
2022-12-03T21:59:41.656Z,17.53
2022-12-03T22:02:10.504Z,16.83
2022-12-03T22:04:38.621Z,16.83
2022-12-03T22:07:06.320Z,17.77
2022-12-03T22:09:33.992Z,16.77
2022-12-03T22:12:01.707Z,16.83
2022-12-03T22:14:30.152Z,16.90
2022-12-03T22:16:57.787Z,17.07
2022-12-03T22:19:25.985Z,16.03
2022-12-03T22:21:53.543Z,16.97
2022-12-03T22:24:21.442Z,16.00
2022-12-03T22:26:49.125Z,15.60
2022-12-03T22:29:16.701Z,16.90
2022-12-03T22:31:44.375Z,14.43
2022-12-03T22:34:12.205Z,17.03
2022-12-03T22:36:39.937Z,16.17
2022-12-03T22:39:07.629Z,16.17
2022-12-03T22:41:35.451Z,15.93
2022-12-03T22:44:03.082Z,15.97
2022-12-03T22:46:31.059Z,16.50
2022-12-03T22:49:03.461Z,17.27
2022-12-03T22:51:35.229Z,15.70
2022-12-03T22:54:03.034Z,16.50
2022-12-03T22:56:31.755Z,16.80
2022-12-03T22:58:59.969Z,15.63
2022-12-03T23:01:31.302Z,15.70
2022-12-03T23:03:59.756Z,15.93
2022-12-03T23:06:28.485Z,16.57
2022-12-03T23:08:57.158Z,15.37
2022-12-03T23:11:25.686Z,16.03
2022-12-03T23:13:53.487Z,16.90
2022-12-03T23:16:23.957Z,15.77
2022-12-03T23:18:52.023Z,15.63
2022-12-03T23:21:28.892Z,15.93
2022-12-03T23:23:59.027Z,15.57
2022-12-03T23:26:27.779Z,14.93
2022-12-03T23:28:57.457Z,16.27
2022-12-03T23:31:37.815Z,16.20
2022-12-03T23:34:06.032Z,14.80
2022-12-03T23:36:34.223Z,14.73
2022-12-03T23:39:02.173Z,15.07
2022-12-03T23:41:29.829Z,15.77
2022-12-03T23:43:57.749Z,16.07
2022-12-03T23:46:26.613Z,15.57
2022-12-03T23:48:54.556Z,14.40
2022-12-03T23:51:26.882Z,14.17
2022-12-03T23:53:55.458Z,15.03
2022-12-03T23:56:26.727Z,14.67
2022-12-03T23:58:54.319Z,14.87
